Time;durP1;ratioP1;P1;durP2;ratioP2;P2;SDS_P1;SDS_P2;PMS_P1;PMS_P2;Temp;Humidity;BMP_temperature;BMP_pressure;BME280_temperature;BME280_humidity;BME280_pressure;Samples;Min_cycle;Max_cycle;Signal;HPM_P1;HPM_P2
2022/12/18 00:02:03;;;;;;;51.60;24.00;;;;;;;-4.90;100.00;102765.22;5070865;28;20048;-55
2022/12/18 00:04:31;;;;;;;50.63;24.70;;;;;;;-4.93;100.00;102758.28;5071683;28;20405;-54
2022/12/18 00:07:00;;;;;;;47.65;24.42;;;;;;;-5.07;100.00;102760.44;5073776;28;20554;-55
2022/12/18 00:09:28;;;;;;;46.55;23.58;;;;;;;-5.07;100.00;102755.31;5073785;28;20052;-55
2022/12/18 00:12:08;;;;;;;50.58;23.48;;;;;;;-5.17;100.00;102753.28;5073751;28;20043;-55
2022/12/18 00:14:42;;;;;;;51.35;25.00;;;;;;;-5.14;100.00;102749.13;5073155;28;20503;-55
2022/12/18 00:17:10;;;;;;;45.45;22.73;;;;;;;-5.15;100.00;102749.06;5073241;28;20048;-48
2022/12/18 00:19:38;;;;;;;50.70;22.38;;;;;;;-5.20;100.00;102750.63;5072599;28;20116;-47
2022/12/18 00:22:06;;;;;;;46.03;22.45;;;;;;;-5.29;100.00;102749.50;5071570;28;20087;-47
2022/12/18 00:24:35;;;;;;;49.47;23.42;;;;;;;-5.22;100.00;102759.94;5072646;28;20053;-55
2022/12/18 00:27:03;;;;;;;47.28;22.92;;;;;;;-5.13;100.00;102760.25;5071397;28;20054;-56
2022/12/18 00:29:33;;;;;;;48.55;22.83;;;;;;;-5.28;100.00;102756.41;5070863;28;20483;-55
2022/12/18 00:32:01;;;;;;;45.22;21.33;;;;;;;-5.32;100.00;102744.25;5073183;28;20052;-55
2022/12/18 00:34:29;;;;;;;49.17;22.75;;;;;;;-5.39;100.00;102742.34;5072754;28;20049;-52
2022/12/18 00:36:57;;;;;;;47.80;21.90;;;;;;;-5.47;100.00;102731.88;5072789;28;20044;-54
2022/12/18 00:39:26;;;;;;;43.60;20.73;;;;;;;-5.54;100.00;102732.47;5072318;28;20460;-55
2022/12/18 00:44:41;;;;;;;51.65;23.65;;;;;;;-5.56;100.00;102734.13;5071862;28;20139;-55
2022/12/18 00:47:09;;;;;;;46.47;22.65;;;;;;;-5.57;100.00;102736.66;5073101;28;20101;-55
2022/12/18 00:49:37;;;;;;;46.38;22.13;;;;;;;-5.54;100.00;102732.47;5071169;28;20309;-55
2022/12/18 00:52:05;;;;;;;46.35;22.83;;;;;;;-5.60;100.00;102734.84;5070717;28;20414;-55
2022/12/18 00:54:33;;;;;;;46.72;22.23;;;;;;;-5.60;100.00;102738.28;5072614;28;20106;-54
2022/12/18 00:57:02;;;;;;;45.10;22.45;;;;;;;-5.60;100.00;102745.09;5073085;28;20091;-54
2022/12/18 00:59:30;;;;;;;45.50;21.42;;;;;;;-5.65;100.00;102750.06;5071980;28;20106;-54
2022/12/18 01:02:00;;;;;;;41.03;20.52;;;;;;;-5.62;100.00;102747.63;5069161;28;20443;-51
2022/12/18 01:04:28;;;;;;;45.60;21.23;;;;;;;-5.65;100.00;102755.19;5072372;28;20057;-53
2022/12/18 01:06:59;;;;;;;43.17;21.00;;;;;;;-5.68;100.00;102744.00;5072805;28;20127;-52
2022/12/18 01:09:27;;;;;;;41.47;20.92;;;;;;;-5.77;100.00;102739.41;5072330;28;20523;-53
2022/12/18 01:11:58;;;;;;;46.23;21.50;;;;;;;-5.68;100.00;102749.13;5075746;28;20074;-54
2022/12/18 01:14:26;;;;;;;42.10;21.23;;;;;;;-5.70;100.00;102746.50;5092602;28;20998;-54
2022/12/18 01:16:54;;;;;;;44.20;20.38;;;;;;;-5.72;100.00;102742.16;5089307;28;20911;-54
2022/12/18 01:19:24;;;;;;;43.35;21.25;;;;;;;-5.84;100.00;102730.66;5078479;28;20040;-54
2022/12/18 01:21:52;;;;;;;39.63;19.50;;;;;;;-5.88;100.00;102735.63;5070658;28;20056;-54
2022/12/18 01:24:20;;;;;;;41.63;18.77;;;;;;;-5.85;100.00;102728.94;5072331;28;20093;-53
2022/12/18 01:26:48;;;;;;;44.15;20.88;;;;;;;-5.88;100.00;102717.69;5072280;28;20041;-55
2022/12/18 01:29:16;;;;;;;40.65;19.02;;;;;;;-6.02;100.00;102723.25;5072206;28;20123;-54
2022/12/18 01:31:44;;;;;;;47.35;21.05;;;;;;;-6.06;100.00;102716.28;5072108;28;20048;-55
2022/12/18 01:34:13;;;;;;;39.10;20.33;;;;;;;-6.18;100.00;102716.75;5070003;28;20036;-54
2022/12/18 01:36:42;;;;;;;45.60;20.63;;;;;;;-6.12;100.00;102721.22;5068534;28;20102;-53
2022/12/18 01:39:13;;;;;;;43.00;21.10;;;;;;;-6.04;100.00;102730.03;5069513;28;20057;-55
2022/12/18 01:45:00;;;;;;;42.47;21.10;;;;;;;-6.15;100.00;102737.38;5072296;28;20048;-52
2022/12/18 01:47:34;;;;;;;47.00;21.52;;;;;;;-6.22;100.00;102745.63;5051274;28;20504;-51
2022/12/18 01:50:05;;;;;;;45.50;20.38;;;;;;;-6.24;100.00;102743.81;5053725;28;20447;-54
2022/12/18 01:52:36;;;;;;;42.60;18.80;;;;;;;-6.15;100.00;102747.59;5056186;28;20049;-51
2022/12/18 01:55:07;;;;;;;42.67;18.60;;;;;;;-6.19;100.00;102745.75;5055934;28;20045;-52
2022/12/18 01:57:36;;;;;;;43.15;20.02;;;;;;;-6.21;100.00;102733.72;5056964;28;20639;-52
2022/12/18 02:00:08;;;;;;;39.65;19.45;;;;;;;-6.20;100.00;102732.88;5074803;28;20555;-53
2022/12/18 02:02:36;;;;;;;43.05;19.25;;;;;;;-6.25;100.00;102732.72;5073107;28;20156;-55
2022/12/18 02:05:06;;;;;;;43.67;20.33;;;;;;;-6.31;100.00;102735.09;5073120;28;20054;-54
2022/12/18 02:07:45;;;;;;;48.97;22.02;;;;;;;-6.22;100.00;102744.78;5075543;28;20056;-54
2022/12/18 02:10:20;;;;;;;47.22;19.95;;;;;;;-6.31;100.00;102745.34;5075541;28;20096;-52
2022/12/18 02:12:56;;;;;;;42.47;18.73;;;;;;;-6.29;100.00;102746.25;5073756;28;20056;-53
2022/12/18 02:15:33;;;;;;;42.95;19.73;;;;;;;-6.30;100.00;102747.94;5053582;28;20498;-53
2022/12/18 02:18:06;;;;;;;43.15;19.98;;;;;;;-6.33;100.00;102737.56;5065044;28;20052;-54
2022/12/18 02:20:40;;;;;;;45.30;20.00;;;;;;;-6.23;100.00;102745.59;5075303;28;20051;-53
2022/12/18 02:23:25;;;;;;;39.33;19.20;;;;;;;-6.29;100.00;102736.84;5073500;28;20052;-53
2022/12/18 02:26:08;;;;;;;38.67;18.05;;;;;;;-6.32;100.00;102739.31;5072429;28;20064;-55
2022/12/18 02:28:43;;;;;;;41.72;19.15;;;;;;;-6.39;100.00;102739.94;5073233;28;20110;-54
2022/12/18 02:31:15;;;;;;;39.58;18.95;;;;;;;-6.47;100.00;102737.09;5071759;28;20052;-54
2022/12/18 02:33:45;;;;;;;;;;;;;;;-6.48;100.00;102739.59;5074351;28;20098;-55
2022/12/18 02:36:15;;;;;;;37.28;18.50;;;;;;;-6.43;100.00;102735.53;5075303;28;19920;-56
2022/12/18 02:38:45;;;;;;;37.33;18.25;;;;;;;-6.49;100.00;102736.19;5074248;28;20063;-51
2022/12/18 02:41:17;;;;;;;42.58;20.38;;;;;;;-6.50;100.00;102733.56;5074886;28;20040;-53
2022/12/18 02:43:51;;;;;;;38.38;17.65;;;;;;;-6.52;100.00;102730.06;5072818;28;20086;-51
2022/12/18 02:46:38;;;;;;;39.75;17.90;;;;;;;-6.51;100.00;102736.94;5070811;28;20048;-51
2022/12/18 02:49:17;;;;;;;37.17;17.52;;;;;;;-6.51;100.00;102731.81;5074565;28;20048;-51
2022/12/18 02:51:53;;;;;;;38.65;18.45;;;;;;;-6.60;100.00;102732.34;5074328;28;20395;-51
2022/12/18 02:54:43;;;;;;;37.65;17.13;;;;;;;-6.59;100.00;102731.53;5072142;28;20036;-51
2022/12/18 02:57:18;;;;;;;34.70;16.60;;;;;;;-6.67;100.00;102731.25;5074761;28;20496;-52
2022/12/18 02:59:54;;;;;;;38.88;18.58;;;;;;;-6.67;100.00;102730.38;5074587;28;20106;-51
2022/12/18 03:02:27;;;;;;;34.05;17.67;;;;;;;-6.71;100.00;102728.53;5072586;28;20076;-52
2022/12/18 03:05:01;;;;;;;37.55;18.20;;;;;;;-6.69;100.00;102732.88;5073789;28;20079;-54
2022/12/18 03:07:37;;;;;;;36.83;18.40;;;;;;;-6.73;100.00;102725.91;5054297;28;20107;-53
2022/12/18 03:10:12;;;;;;;33.03;16.48;;;;;;;-6.69;100.00;102727.78;5066160;28;20049;-52
2022/12/18 03:12:47;;;;;;;31.83;14.95;;;;;;;-6.74;100.00;102726.72;5072843;28;20110;-50
2022/12/18 03:15:21;;;;;;;32.55;16.10;;;;;;;-6.80;100.00;102723.97;5074244;28;20560;-51
2022/12/18 03:17:56;;;;;;;31.80;15.98;;;;;;;-6.75;100.00;102724.13;5074175;28;20086;-51
2022/12/18 03:20:30;;;;;;;33.85;16.10;;;;;;;-6.85;100.00;102721.22;5073531;28;20044;-54
2022/12/18 03:23:05;;;;;;;31.90;16.00;;;;;;;-6.89;100.00;102714.25;5071812;28;20053;-53
2022/12/18 03:25:35;;;;;;;32.75;16.38;;;;;;;-6.83;100.00;102713.59;5072501;28;20174;-52
2022/12/18 03:28:09;;;;;;;35.75;16.80;;;;;;;-6.87;100.00;102719.41;5074177;28;20090;-52
2022/12/18 03:30:41;;;;;;;33.97;17.67;;;;;;;-6.85;100.00;102716.09;5074341;28;20044;-51
2022/12/18 03:33:11;;;;;;;;;;;;;;;-6.87;100.00;102706.63;5070560;28;20044;-54
2022/12/18 03:35:42;;;;;;;32.28;16.02;;;;;;;-6.88;100.00;102704.91;5071633;28;20368;-50
2022/12/18 03:38:11;;;;;;;32.67;15.80;;;;;;;-6.82;100.00;102702.53;5072731;28;20064;-51
2022/12/18 03:40:51;;;;;;;30.83;15.13;;;;;;;-6.90;100.00;102696.28;5074008;28;20052;-54
2022/12/18 03:43:32;;;;;;;29.13;13.98;;;;;;;-6.90;100.00;102698.84;5054170;28;20049;-54
2022/12/18 03:46:07;;;;;;;32.22;15.88;;;;;;;-6.93;100.00;102688.50;5070260;28;20052;-46
2022/12/18 03:48:42;;;;;;;31.58;15.48;;;;;;;-7.02;100.00;102681.34;5073772;28;20499;-47
2022/12/18 03:51:16;;;;;;;35.03;16.13;;;;;;;-7.08;100.00;102692.22;5073345;28;20056;-55
2022/12/18 03:53:52;;;;;;;30.52;16.33;;;;;;;-7.05;100.00;102689.75;5074020;28;20067;-54
2022/12/18 03:56:23;;;;;;;31.42;15.07;;;;;;;-6.98;100.00;102685.75;5073252;28;20044;-53
2022/12/18 03:58:54;;;;;;;31.45;16.20;;;;;;;-6.93;100.00;102688.50;5072137;28;20072;-51
2022/12/18 04:01:30;;;;;;;29.92;15.02;;;;;;;-7.04;100.00;102688.97;5069145;28;20047;-54
2022/12/18 04:04:01;;;;;;;31.20;14.63;;;;;;;-7.02;100.00;102689.91;5071013;28;20114;-54
2022/12/18 04:06:30;;;;;;;30.90;15.43;;;;;;;-6.99;100.00;102686.59;5071746;28;20044;-50
2022/12/18 04:08:59;;;;;;;29.90;14.57;;;;;;;-6.86;100.00;102677.66;5072476;28;20040;-53
2022/12/18 04:11:28;;;;;;;31.27;15.15;;;;;;;-6.97;100.00;102680.72;5071492;28;20557;-53
2022/12/18 04:13:58;;;;;;;33.60;14.55;;;;;;;-6.98;100.00;102688.31;5071029;28;20074;-53
2022/12/18 04:16:27;;;;;;;31.33;15.75;;;;;;;-7.01;100.00;102681.41;5072860;28;20113;-51
2022/12/18 04:18:55;;;;;;;29.98;13.93;;;;;;;-7.09;100.00;102682.78;5071098;28;20139;-51
2022/12/18 04:21:23;;;;;;;30.52;14.85;;;;;;;-7.03;100.00;102683.03;5071417;28;20044;-51
2022/12/18 04:23:51;;;;;;;24.30;12.88;;;;;;;-7.04;100.00;102677.88;5073458;28;20036;-51
2022/12/18 04:26:20;;;;;;;29.20;14.68;;;;;;;-7.06;100.00;102675.25;5073345;28;20048;-51
2022/12/18 04:28:48;;;;;;;30.33;14.40;;;;;;;-7.04;100.00;102676.16;5073447;28;20045;-50
2022/12/18 04:31:17;;;;;;;33.38;14.27;;;;;;;-7.05;100.00;102665.88;5073226;28;20067;-54
2022/12/18 04:33:45;;;;;;;31.83;14.60;;;;;;;-7.13;100.00;102666.47;5073340;28;20404;-54
2022/12/18 04:36:14;;;;;;;31.35;13.95;;;;;;;-7.11;100.00;102656.28;5073283;28;20044;-51
2022/12/18 04:38:42;;;;;;;25.75;13.77;;;;;;;-7.16;100.00;102661.25;5071473;28;20185;-52
2022/12/18 04:41:12;;;;;;;29.45;13.55;;;;;;;-7.05;100.00;102664.19;5070710;28;20072;-53
2022/12/18 04:43:40;;;;;;;26.65;13.73;;;;;;;-7.10;100.00;102658.06;5072572;28;20044;-55
2022/12/18 04:46:09;;;;;;;25.30;13.65;;;;;;;-7.09;100.00;102658.91;5071668;28;20053;-51
2022/12/18 04:48:39;;;;;;;25.27;13.70;;;;;;;-7.10;100.00;102664.84;5069653;28;20102;-52
2022/12/18 04:51:08;;;;;;;29.23;12.55;;;;;;;-7.06;100.00;102664.13;5071740;28;20507;-54
2022/12/18 04:53:36;;;;;;;28.40;13.55;;;;;;;-7.08;100.00;102666.63;5072546;28;20044;-52
2022/12/18 04:56:07;;;;;;;24.70;13.30;;;;;;;-7.08;100.00;102671.75;5072736;28;20037;-53
2022/12/18 04:58:35;;;;;;;29.98;13.60;;;;;;;-7.09;100.00;102670.00;5072835;28;20490;-53
2022/12/18 05:01:04;;;;;;;25.33;11.85;;;;;;;-7.08;100.00;102669.19;5072652;28;20044;-54
2022/12/18 05:03:32;;;;;;;26.85;12.38;;;;;;;-7.13;100.00;102663.91;5072218;28;20161;-51
2022/12/18 05:06:02;;;;;;;27.52;12.25;;;;;;;-7.14;100.00;102662.16;5072765;28;20036;-51
2022/12/18 05:08:31;;;;;;;23.23;12.15;;;;;;;-7.24;100.00;102660.09;5072444;28;20094;-53
2022/12/18 05:11:00;;;;;;;25.77;12.57;;;;;;;-7.24;100.00;102664.31;5071874;28;20060;-54
2022/12/18 05:13:29;;;;;;;25.95;12.20;;;;;;;-7.23;100.00;102672.03;5069767;28;20055;-53
2022/12/18 05:15:57;;;;;;;27.02;12.95;;;;;;;-7.26;100.00;102681.31;5071304;28;20053;-51
2022/12/18 05:18:28;;;;;;;23.65;11.45;;;;;;;-7.29;100.00;102679.50;5056602;28;20060;-54
2022/12/18 05:20:57;;;;;;;25.63;12.00;;;;;;;-7.28;100.00;102690.59;5072342;28;20407;-52
2022/12/18 05:23:27;;;;;;;24.25;12.38;;;;;;;-7.20;100.00;102694.31;5072054;28;20453;-51
2022/12/18 05:25:58;;;;;;;24.45;11.00;;;;;;;-7.25;100.00;102693.25;5072358;28;20045;-52
2022/12/18 05:28:29;;;;;;;20.95;11.30;;;;;;;-7.21;100.00;102710.47;5071989;28;20037;-53
2022/12/18 05:30:58;;;;;;;24.67;11.75;;;;;;;-7.28;100.00;102711.06;5072325;28;20054;-52
2022/12/18 05:33:29;;;;;;;21.65;10.85;;;;;;;-7.27;100.00;102715.38;5071728;28;20072;-51
2022/12/18 05:35:59;;;;;;;22.20;11.68;;;;;;;-7.31;100.00;102728.03;5068996;28;20037;-51
2022/12/18 05:38:30;;;;;;;20.45;11.13;;;;;;;-7.40;100.00;102721.66;5069466;28;20476;-54
2022/12/18 05:40:59;;;;;;;22.50;11.87;;;;;;;-7.39;100.00;102739.66;5070817;28;20072;-54
2022/12/18 05:43:28;;;;;;;24.15;12.30;;;;;;;-7.39;100.00;102731.09;5071940;28;20060;-54
2022/12/18 05:45:57;;;;;;;22.75;11.43;;;;;;;-7.34;100.00;102729.59;5069900;28;20434;-52
2022/12/18 05:48:25;;;;;;;21.85;11.60;;;;;;;-7.42;100.00;102729.28;5069823;28;20106;-53
2022/12/18 05:50:53;;;;;;;23.42;11.90;;;;;;;-7.46;100.00;102727.41;5070775;28;20087;-50
2022/12/18 05:53:22;;;;;;;22.52;11.48;;;;;;;-7.45;100.00;102734.28;5069788;28;20049;-52
2022/12/18 05:55:51;;;;;;;22.40;10.98;;;;;;;-7.40;100.00;102719.09;5071061;28;20095;-52
2022/12/18 05:58:19;;;;;;;21.83;11.00;;;;;;;-7.49;100.00;102705.16;5072303;28;20463;-53
2022/12/18 06:00:48;;;;;;;22.88;11.02;;;;;;;-7.53;100.00;102703.28;5069771;28;20385;-51
2022/12/18 06:03:16;;;;;;;23.60;10.48;;;;;;;-7.53;100.00;102702.44;5068801;28;20453;-53
2022/12/18 06:05:45;;;;;;;20.55;10.38;;;;;;;-7.45;100.00;102695.94;5070017;28;20124;-53
2022/12/18 06:08:14;;;;;;;22.38;10.55;;;;;;;-7.45;100.00;102687.41;5072173;28;20055;-53
2022/12/18 06:10:43;;;;;;;26.38;12.38;;;;;;;-7.41;100.00;102677.34;5072094;28;20102;-46
2022/12/18 06:13:12;;;;;;;24.33;10.55;;;;;;;-7.39;100.00;102674.84;5071989;28;20503;-48
2022/12/18 06:15:40;;;;;;;20.00;11.20;;;;;;;-7.52;100.00;102678.63;5071435;28;20041;-50
2022/12/18 06:18:11;;;;;;;21.55;10.82;;;;;;;-7.43;100.00;102665.31;5071526;28;20448;-48
2022/12/18 06:20:41;;;;;;;21.65;10.70;;;;;;;-7.42;100.00;102669.63;5070885;28;20052;-47
2022/12/18 06:23:09;;;;;;;22.92;11.15;;;;;;;-7.42;100.00;102673.03;5071514;28;20037;-49
2022/12/18 06:25:39;;;;;;;19.95;9.77;;;;;;;-7.45;100.00;102670.38;5057874;28;20132;-48
2022/12/18 06:28:07;;;;;;;21.27;10.25;;;;;;;-7.46;100.00;102671.16;5071606;28;20570;-46
2022/12/18 06:30:36;;;;;;;23.25;11.02;;;;;;;-7.49;100.00;102677.03;5070860;28;20041;-46
2022/12/18 06:33:05;;;;;;;19.85;10.82;;;;;;;-7.47;100.00;102667.75;5068899;28;20119;-49
2022/12/18 06:35:33;;;;;;;20.13;9.68;;;;;;;-7.51;100.00;102658.22;5070209;28;20056;-49
2022/12/18 06:38:02;;;;;;;21.95;10.85;;;;;;;-7.45;100.00;102654.16;5073611;28;20044;-50
2022/12/18 06:40:30;;;;;;;19.13;11.05;;;;;;;-7.49;100.00;102656.59;5072573;28;20052;-53
2022/12/18 06:42:58;;;;;;;21.95;10.23;;;;;;;-7.44;100.00;102654.22;5072875;28;20147;-52
2022/12/18 06:45:27;;;;;;;25.95;11.40;;;;;;;-7.49;100.00;102656.59;5075126;28;20395;-51
2022/12/18 06:47:59;;;;;;;19.63;10.52;;;;;;;-7.48;100.00;102654.91;5069279;28;20521;-47
2022/12/18 06:50:27;;;;;;;21.05;11.15;;;;;;;-7.52;100.00;102645.38;5075038;28;20067;-48
2022/12/18 06:52:55;;;;;;;23.33;12.00;;;;;;;-7.54;100.00;102645.34;5074414;28;20048;-48
2022/12/18 06:55:23;;;;;;;25.42;11.00;;;;;;;-7.55;100.00;102641.03;5074317;28;20041;-48
2022/12/18 06:57:52;;;;;;;21.35;10.90;;;;;;;-7.55;100.00;102638.47;5073407;28;20044;-50
2022/12/18 07:00:20;;;;;;;19.63;10.43;;;;;;;-7.53;100.00;102634.28;5073008;28;20046;-45
2022/12/18 07:02:51;;;;;;;21.40;11.40;;;;;;;-7.50;100.00;102633.53;5071571;28;20131;-51
2022/12/18 07:05:20;;;;;;;21.58;11.32;;;;;;;-7.50;100.00;102628.41;5073945;28;20086;-47
2022/12/18 07:07:48;;;;;;;22.08;11.52;;;;;;;-7.48;100.00;102619.13;5074593;28;20048;-53
2022/12/18 07:10:17;;;;;;;22.63;10.98;;;;;;;-7.51;100.00;102624.09;5073030;28;20056;-53
2022/12/18 07:12:48;;;;;;;23.08;11.48;;;;;;;-7.51;100.00;102627.56;5070740;28;20470;-49
2022/12/18 07:15:16;;;;;;;21.73;11.27;;;;;;;-7.50;100.00;102625.84;5073512;28;20349;-49
2022/12/18 07:17:44;;;;;;;22.15;10.85;;;;;;;-7.45;100.00;102623.50;5074665;28;20124;-52
2022/12/18 07:20:12;;;;;;;20.20;10.05;;;;;;;-7.43;100.00;102627.84;5074261;28;20075;-51
2022/12/18 07:22:44;;;;;;;24.85;11.77;;;;;;;-7.42;100.00;102629.56;5073517;28;20561;-53
2022/12/18 07:25:12;;;;;;;21.08;10.55;;;;;;;-7.35;100.00;102636.69;5071227;28;20049;-54
2022/12/18 07:27:40;;;;;;;23.88;11.45;;;;;;;-7.35;100.00;102631.56;5073007;28;20048;-54
2022/12/18 07:30:10;;;;;;;21.58;11.10;;;;;;;-7.28;100.00;102639.44;5074258;28;20121;-54
2022/12/18 07:32:38;;;;;;;24.30;11.27;;;;;;;-7.26;100.00;102628.47;5074581;28;20494;-54
2022/12/18 07:35:07;;;;;;;19.55;11.20;;;;;;;-7.25;100.00;102626.78;5073859;28;20051;-54
2022/12/18 07:37:35;;;;;;;25.35;11.88;;;;;;;-7.23;100.00;102626.00;5074055;28;20036;-54
2022/12/18 07:40:06;;;;;;;20.75;10.73;;;;;;;-7.22;100.00;102629.47;5072736;28;20483;-54
2022/12/18 07:42:34;;;;;;;21.70;11.32;;;;;;;-7.18;100.00;102618.53;5072852;28;20090;-52
2022/12/18 07:45:03;;;;;;;22.23;10.75;;;;;;;-7.20;100.00;102610.81;5073579;28;20044;-55
2022/12/18 07:47:32;;;;;;;21.38;11.57;;;;;;;-7.20;100.00;102610.81;5070061;28;20420;-53
2022/12/18 07:50:00;;;;;;;19.98;9.45;;;;;;;-7.18;100.00;102608.31;5072413;28;20098;-53
2022/12/18 07:52:28;;;;;;;21.40;11.68;;;;;;;-7.16;100.00;102604.09;5074106;28;20056;-54
2022/12/18 07:54:56;;;;;;;25.83;11.77;;;;;;;-7.07;100.00;102593.34;5074035;28;20045;-51
2022/12/18 07:57:25;;;;;;;21.10;10.95;;;;;;;-7.01;100.00;102588.44;5075087;28;20124;-52
2022/12/18 08:00:16;;;;;;;21.40;12.27;;;;;;;-6.98;100.00;102584.31;5074131;28;20053;-55
2022/12/18 08:02:44;;;;;;;20.67;10.60;;;;;;;-6.95;100.00;102588.66;5073855;28;20098;-52
2022/12/18 08:05:13;;;;;;;20.23;11.80;;;;;;;-6.91;100.00;102587.06;5073503;28;20048;-53
2022/12/18 08:07:41;;;;;;;20.83;11.10;;;;;;;-6.91;100.00;102581.94;5071720;28;20048;-53
2022/12/18 08:10:09;;;;;;;24.83;11.85;;;;;;;-6.89;100.00;102581.19;5071708;28;20523;-54
2022/12/18 08:12:39;;;;;;;23.20;10.25;;;;;;;-6.87;100.00;102579.56;5073297;28;20048;-54
2022/12/18 08:15:08;;;;;;;22.55;11.13;;;;;;;-6.82;100.00;102577.16;5071543;28;20045;-50
2022/12/18 08:17:36;;;;;;;21.67;11.73;;;;;;;-6.78;100.00;102575.56;5070933;28;20041;-52
2022/12/18 08:20:05;;;;;;;19.42;10.68;;;;;;;-6.75;100.00;102568.84;5071161;28;20083;-53
2022/12/18 08:22:35;;;;;;;20.75;11.13;;;;;;;-6.70;100.00;102572.44;5070832;28;20086;-54
2022/12/18 08:25:03;;;;;;;23.52;10.75;;;;;;;-6.63;100.00;102561.59;5072747;28;20041;-51
2022/12/18 08:27:32;;;;;;;21.67;10.45;;;;;;;-6.55;100.00;102571.22;5072945;28;20094;-46
2022/12/18 08:30:03;;;;;;;21.60;10.77;;;;;;;-6.49;100.00;102577.44;5071807;28;20056;-48
2022/12/18 08:32:32;;;;;;;23.10;10.30;;;;;;;-6.42;100.00;102570.81;5072783;28;20114;-46
2022/12/18 08:35:01;;;;;;;22.00;10.85;;;;;;;-6.35;100.00;102567.63;5072356;28;20068;-48
2022/12/18 08:37:29;;;;;;;20.77;10.13;;;;;;;-6.25;100.00;102562.81;5071585;28;20044;-48
2022/12/18 08:39:57;;;;;;;23.00;9.82;;;;;;;-6.13;100.00;102560.63;5068796;28;20040;-48
2022/12/18 08:45:12;;;;;;;16.95;9.35;;;;;;;-5.90;100.00;102565.56;5067287;28;20058;-47
2022/12/18 08:47:40;;;;;;;19.55;9.00;;;;;;;-5.85;100.00;102572.59;5072302;28;20055;-49
2022/12/18 08:50:11;;;;;;;18.00;8.63;;;;;;;-5.74;100.00;102572.88;5072198;28;20057;-49
2022/12/18 08:52:39;;;;;;;18.65;8.68;;;;;;;-5.67;100.00;102569.69;5054727;28;20049;-49
2022/12/18 08:55:09;;;;;;;19.48;8.63;;;;;;;-5.53;100.00;102571.81;5071800;28;20495;-47
2022/12/18 08:57:37;;;;;;;18.38;8.43;;;;;;;-5.44;100.00;102567.81;5072338;28;20040;-54
2022/12/18 09:00:07;;;;;;;15.50;8.65;;;;;;;-5.33;100.00;102565.56;5071615;28;20135;-54
2022/12/18 09:02:36;;;;;;;19.15;8.50;;;;;;;-5.24;100.00;102562.34;5068120;28;20127;-51
2022/12/18 09:05:05;;;;;;;19.00;8.20;;;;;;;-5.20;100.00;102555.63;5070657;28;20132;-54
2022/12/18 09:07:34;;;;;;;19.17;8.02;;;;;;;-5.07;100.00;102562.84;5070220;28;20041;-55
2022/12/18 09:10:02;;;;;;;17.88;8.05;;;;;;;-5.05;100.00;102563.72;5069166;28;20052;-51
2022/12/18 09:12:30;;;;;;;18.30;9.00;;;;;;;-4.94;100.00;102566.59;5071732;28;20048;-54
2022/12/18 09:14:58;;;;;;;18.02;8.52;;;;;;;-4.84;100.00;102562.56;5070600;28;20049;-51
2022/12/18 09:17:26;;;;;;;16.85;8.98;;;;;;;-4.71;100.00;102564.63;5072034;28;20120;-54
2022/12/18 09:19:58;;;;;;;18.23;8.73;;;;;;;-4.59;100.00;102552.09;5072825;28;20036;-54
2022/12/18 09:22:27;;;;;;;16.85;8.30;;;;;;;-4.45;100.00;102559.28;5072204;28;20051;-50
2022/12/18 09:24:55;;;;;;;17.13;8.27;;;;;;;-4.45;100.00;102555.00;5072333;28;20044;-51
2022/12/18 09:27:23;;;;;;;16.38;7.68;;;;;;;-4.21;100.00;102551.28;5072520;28;20078;-48
2022/12/18 09:29:51;;;;;;;17.70;8.52;;;;;;;-4.18;100.00;102545.38;5072462;28;20086;-48
2022/12/18 09:32:19;;;;;;;16.02;7.82;;;;;;;-4.18;100.00;102551.38;5072394;28;20049;-49
2022/12/18 09:34:49;;;;;;;18.00;8.18;;;;;;;-3.99;100.00;102554.38;5072696;28;20045;-47
2022/12/18 09:37:19;;;;;;;15.63;8.07;;;;;;;-4.05;100.00;102554.22;5071957;28;20047;-48
2022/12/18 09:39:47;;;;;;;16.23;8.38;;;;;;;-4.05;100.00;102556.78;5070725;28;20078;-46
2022/12/18 09:42:21;;;;;;;16.23;8.38;;;;;;;-3.85;100.00;102552.09;5070728;28;20469;-48
2022/12/18 09:44:51;;;;;;;17.98;8.25;;;;;;;-3.82;100.00;102545.31;5068365;28;20068;-47
2022/12/18 09:47:25;;;;;;;15.50;8.15;;;;;;;-3.82;100.00;102554.72;5069498;28;20052;-46
2022/12/18 09:49:57;;;;;;;17.70;8.07;;;;;;;-3.70;100.00;102549.84;5069051;28;20052;-47
2022/12/18 09:52:31;;;;;;;17.00;8.30;;;;;;;-3.69;100.00;102541.31;5069140;28;20503;-46
2022/12/18 09:55:04;;;;;;;15.75;7.57;;;;;;;-3.65;100.00;102539.69;5072310;28;20045;-48
2022/12/18 09:57:34;;;;;;;19.23;8.95;;;;;;;-3.47;100.00;102534.88;5072028;28;20072;-47
2022/12/18 10:00:15;;;;;;;16.98;8.50;;;;;;;-3.46;100.00;102534.06;5071637;28;20124;-48
2022/12/18 10:02:43;;;;;;;16.05;8.20;;;;;;;-3.40;100.00;102530.75;5070710;28;20458;-48
2022/12/18 10:05:15;;;;;;;21.95;10.50;;;;;;;-3.37;100.00;102524.78;5068345;28;20129;-46
2022/12/18 10:07:57;;;;;;;19.43;9.73;;;;;;;-3.35;100.00;102513.69;5069042;28;20041;-47
2022/12/18 10:10:37;;;;;;;16.05;8.50;;;;;;;-3.30;100.00;102512.09;5071105;28;20461;-46
2022/12/18 10:13:22;;;;;;;16.88;8.73;;;;;;;-3.30;100.00;102513.78;5072123;28;20052;-47
2022/12/18 10:16:01;;;;;;;14.75;8.25;;;;;;;-3.23;100.00;102516.50;5072261;28;20072;-49
2022/12/18 10:18:48;;;;;;;18.13;8.95;;;;;;;-3.19;100.00;102521.69;5072031;28;20098;-51
2022/12/18 10:21:20;;;;;;;17.90;10.23;;;;;;;-3.11;100.00;102518.44;5072720;28;20102;-50
2022/12/18 10:24:01;;;;;;;16.83;8.97;;;;;;;-3.08;100.00;102510.78;5070513;28;20110;-50
2022/12/18 10:26:29;;;;;;;18.90;9.60;;;;;;;-3.05;100.00;102504.81;5072346;28;20492;-50
2022/12/18 10:28:59;;;;;;;17.10;9.20;;;;;;;-2.95;100.00;102495.53;5074396;28;20036;-47
2022/12/18 10:31:32;;;;;;;16.52;8.75;;;;;;;-2.91;100.00;102492.16;5074157;28;20044;-49
2022/12/18 10:34:00;;;;;;;14.57;8.90;;;;;;;-2.85;100.00;102483.69;5074299;28;20066;-52
2022/12/18 10:36:29;;;;;;;18.00;8.55;;;;;;;-2.81;100.00;102488.03;5073978;28;20480;-49
2022/12/18 10:39:15;;;;;;;18.73;9.60;;;;;;;-2.76;100.00;102476.13;5071662;28;20127;-50
2022/12/18 10:41:46;;;;;;;16.52;8.60;;;;;;;-2.72;100.00;102472.75;5068089;28;20102;-50
2022/12/18 10:44:18;;;;;;;16.83;8.30;;;;;;;-2.63;100.00;102472.91;5073708;28;20040;-50
2022/12/18 10:46:48;;;;;;;14.60;8.52;;;;;;;-2.57;100.00;102472.97;5073624;28;20055;-49
2022/12/18 10:49:23;;;;;;;21.75;10.57;;;;;;;-2.53;100.00;102476.47;5074068;28;20526;-51
2022/12/18 10:51:52;;;;;;;19.17;9.68;;;;;;;-2.48;100.00;102479.13;5071514;28;20040;-48
2022/12/18 10:54:24;;;;;;;18.20;9.52;;;;;;;-2.45;100.00;102466.28;5073109;28;20048;-47
2022/12/18 10:56:52;;;;;;;13.32;6.90;;;;;;;-2.36;100.00;102463.84;5071397;28;20048;-48
2022/12/18 10:59:20;;;;;;;18.55;8.43;;;;;;;-2.28;100.00;102451.91;5073502;28;20102;-49
2022/12/18 11:01:51;;;;;;;15.38;7.85;;;;;;;-2.24;100.00;102440.81;5073490;28;20399;-47
2022/12/18 11:04:22;;;;;;;14.52;8.10;;;;;;;-2.20;100.00;102441.72;5073147;28;20364;-48
2022/12/18 11:06:57;;;;;;;14.68;7.90;;;;;;;-2.15;100.00;102447.81;5072963;28;20048;-47
2022/12/18 11:09:28;;;;;;;15.80;8.00;;;;;;;-2.10;100.00;102447.88;5073574;28;20040;-47
2022/12/18 11:11:59;;;;;;;15.55;8.73;;;;;;;-2.02;100.00;102450.56;5073262;28;20048;-49
2022/12/18 11:14:29;;;;;;;16.30;8.70;;;;;;;-2.01;100.00;102448.00;5070932;28;20049;-48
2022/12/18 11:17:00;;;;;;;14.95;7.78;;;;;;;-1.97;100.00;102439.44;5073651;28;20052;-48
2022/12/18 11:19:55;;;;;;;16.55;7.75;;;;;;;-1.96;100.00;102440.34;5066961;28;20048;-47
2022/12/18 11:22:27;;;;;;;15.57;8.00;;;;;;;-1.95;100.00;102437.75;5069172;28;20051;-49
2022/12/18 11:24:59;;;;;;;15.80;8.45;;;;;;;-1.89;100.00;102437.81;5071432;28;20406;-47
2022/12/18 11:27:54;;;;;;;17.98;8.45;;;;;;;-1.81;100.00;102429.31;5071604;28;20377;-48
2022/12/18 11:30:25;;;;;;;18.23;8.88;;;;;;;-1.88;100.00;102418.94;5073241;28;20102;-48